Time;durP1;ratioP1;P1;durP2;ratioP2;P2;SDS_P1;SDS_P2;PMS_P1;PMS_P2;Temp;Humidity;BMP_temperature;BMP_pressure;BME280_temperature;BME280_humidity;BME280_pressure;Samples;Min_cycle;Max_cycle;Signal;HPM_P1;HPM_P2
2022/10/27 00:02:08;;;;;;;;;4.00;2.00;;;;;;;;5058572;28;45452;-73
2022/10/27 00:04:33;;;;;;;;;1.50;1.50;;;;;;;;5058892;28;45644;-72
2022/10/27 00:06:58;;;;;;;;;2.50;1.00;;;;;;;;5056910;28;46339;-70
2022/10/27 00:09:23;;;;;;;;;2.75;2.50;;;;;;;;5056818;28;45310;-70
2022/10/27 00:11:48;;;;;;;;;2.25;2.25;;;;;;;;5056527;28;45353;-70
2022/10/27 00:14:14;;;;;;;;;1.75;1.75;;;;;;;;5058173;28;45801;-72
2022/10/27 00:16:39;;;;;;;;;2.00;2.00;;;;;;;;5057998;28;46412;-72
2022/10/27 00:19:04;;;;;;;;;5.25;4.75;;;;;;;;5057857;28;45422;-72
2022/10/27 00:21:29;;;;;;;;;5.00;3.00;;;;;;;;5057362;28;45669;-72
2022/10/27 00:23:55;;;;;;;;;3.50;3.00;;;;;;;;5058301;28;45403;-71
2022/10/27 00:26:21;;;;;;;;;3.75;3.75;;;;;;;;5058022;28;46206;-71
2022/10/27 00:28:46;;;;;;;;;2.75;2.75;;;;;;;;5058127;28;45367;-72
2022/10/27 00:31:12;;;;;;;;;6.00;4.00;;;;;;;;5057599;28;45704;-72
2022/10/27 00:33:37;;;;;;;;;4.00;2.25;;;;;;;;5057735;28;45420;-72
2022/10/27 00:36:07;;;;;;;;;2.50;2.00;;;;;;;;5057970;28;46169;-71
2022/10/27 00:38:32;;;;;;;;;4.00;2.75;;;;;;;;5057852;28;45637;-72
2022/10/27 00:40:58;;;;;;;;;3.00;3.00;;;;;;;;5058066;28;45374;-72
2022/10/27 00:43:28;;;;;;;;;2.75;2.75;;;;;;;;5057886;28;45458;-71
2022/10/27 00:45:54;;;;;;;;;4.50;2.75;;;;;;;;5057792;28;45428;-71
2022/10/27 00:48:22;;;;;;;;;4.50;2.00;;;;;;;;5057557;28;45378;-72
2022/10/27 00:50:47;;;;;;;;;3.25;2.00;;;;;;;;5058021;28;45457;-72
2022/10/27 00:53:12;;;;;;;;;2.00;2.00;;;;;;;;5057781;28;45288;-72
2022/10/27 00:55:38;;;;;;;;;2.50;2.00;;;;;;;;5057894;28;45661;-71
2022/10/27 00:58:08;;;;;;;;;0.00;0.00;;;;;;;;5057621;28;45787;-71
2022/10/27 01:00:35;;;;;;;;;3.00;2.00;;;;;;;;5057769;28;45423;-71
2022/10/27 01:03:00;;;;;;;;;3.25;2.00;;;;;;;;5057568;28;45791;-72
2022/10/27 01:05:27;;;;;;;;;2.00;2.00;;;;;;;;5057402;28;45595;-71
2022/10/27 01:07:54;;;;;;;;;2.00;2.00;;;;;;;;5057793;28;45388;-71
2022/10/27 01:10:20;;;;;;;;;5.00;2.00;;;;;;;;5057538;28;45369;-71
2022/10/27 01:12:45;;;;;;;;;1.00;1.00;;;;;;;;5057858;28;45429;-72
2022/10/27 01:15:11;;;;;;;;;2.00;2.00;;;;;;;;5056726;28;46647;-71
2022/10/27 01:17:37;;;;;;;;;2.00;2.00;;;;;;;;5057336;28;45434;-71
2022/10/27 01:20:02;;;;;;;;;3.25;2.75;;;;;;;;5057434;28;45378;-71
2022/10/27 01:22:46;;;;;;;;;3.25;2.00;;;;;;;;5057525;28;45524;-72
2022/10/27 01:25:14;;;;;;;;;2.00;2.00;;;;;;;;5056628;28;46628;-72
2022/10/27 01:27:57;;;;;;;;;4.00;3.00;;;;;;;;5057282;28;45792;-71
2022/10/27 01:30:23;;;;;;;;;2.00;1.75;;;;;;;;5057224;28;45528;-72
2022/10/27 01:33:00;;;;;;;;;2.00;2.00;;;;;;;;5056563;28;45362;-71
2022/10/27 01:35:25;;;;;;;;;4.25;4.00;;;;;;;;5056521;28;45603;-71
2022/10/27 01:37:51;;;;;;;;;2.25;1.50;;;;;;;;5056980;28;45389;-71
2022/10/27 01:40:16;;;;;;;;;2.75;2.75;;;;;;;;5057425;28;45405;-72
2022/10/27 01:42:53;;;;;;;;;2.00;2.00;;;;;;;;5057200;28;45677;-72
2022/10/27 01:45:26;;;;;;;;;5.00;2.00;;;;;;;;5056281;28;45745;-71
2022/10/27 01:47:52;;;;;;;;;3.50;2.00;;;;;;;;5056943;28;45443;-72
2022/10/27 01:50:18;;;;;;;;;1.00;1.00;;;;;;;;5056813;28;45327;-72
2022/10/27 01:52:45;;;;;;;;;2.50;2.00;;;;;;;;5057301;28;45399;-71
2022/10/27 01:55:26;;;;;;;;;3.00;3.00;;;;;;;;5056398;28;46599;-72
2022/10/27 01:58:00;;;;;;;;;2.00;2.00;;;;;;;;5056842;28;45431;-72
2022/10/27 02:00:25;;;;;;;;;6.50;3.75;;;;;;;;5056985;28;45400;-71
2022/10/27 02:03:00;;;;;;;;;5.25;2.75;;;;;;;;5057046;28;45491;-71
2022/10/27 02:05:42;;;;;;;;;3.25;3.25;;;;;;;;5056076;28;45609;-71
2022/10/27 02:08:12;;;;;;;;;4.75;4.75;;;;;;;;5056387;28;45324;-71
2022/10/27 02:10:37;;;;;;;;;3.50;3.50;;;;;;;;5056536;28;45319;-71
2022/10/27 02:13:03;;;;;;;;;6.25;4.25;;;;;;;;5056830;28;45368;-72
2022/10/27 02:15:28;;;;;;;;;7.00;5.00;;;;;;;;5055860;28;45465;-71
2022/10/27 02:17:56;;;;;;;;;5.75;4.00;;;;;;;;5056116;28;45468;-71
2022/10/27 02:20:24;;;;;;;;;6.50;5.50;;;;;;;;5056370;28;45292;-71
2022/10/27 02:22:52;;;;;;;;;8.50;5.50;;;;;;;;5056515;28;45373;-71
2022/10/27 02:25:20;;;;;;;;;6.25;4.75;;;;;;;;5056293;28;45845;-72
2022/10/27 02:27:52;;;;;;;;;5.75;4.50;;;;;;;;5055893;28;45349;-71
2022/10/27 02:30:18;;;;;;;;;7.75;4.75;;;;;;;;5056433;28;45326;-71
2022/10/27 02:32:43;;;;;;;;;6.00;5.00;;;;;;;;5056500;28;45311;-72
2022/10/27 02:35:10;;;;;;;;;7.00;4.75;;;;;;;;5055510;28;46725;-71
2022/10/27 02:37:39;;;;;;;;;4.75;4.75;;;;;;;;5055730;28;45438;-72
2022/10/27 02:40:05;;;;;;;;;5.25;5.25;;;;;;;;5056288;28;45447;-71
2022/10/27 02:42:30;;;;;;;;;8.25;5.50;;;;;;;;5056276;28;45651;-72
2022/10/27 02:44:55;;;;;;;;;4.00;2.00;;;;;;;;5055323;28;46577;-71
2022/10/27 02:47:20;;;;;;;;;10.00;5.50;;;;;;;;5055801;28;45340;-71
2022/10/27 02:49:46;;;;;;;;;7.00;6.50;;;;;;;;5055350;28;45778;-71
2022/10/27 02:52:11;;;;;;;;;10.00;10.00;;;;;;;;5056480;28;45355;-72
2022/10/27 02:54:36;;;;;;;;;10.00;9.50;;;;;;;;5055708;28;45760;-71
2022/10/27 02:57:01;;;;;;;;;8.25;8.25;;;;;;;;5055941;28;45454;-72
2022/10/27 02:59:27;;;;;;;;;12.50;11.50;;;;;;;;5055562;28;45428;-72
2022/10/27 03:01:52;;;;;;;;;12.25;11.25;;;;;;;;5056008;28;45437;-72
2022/10/27 03:04:17;;;;;;;;;10.00;10.00;;;;;;;;5055626;28;45657;-71
2022/10/27 03:06:42;;;;;;;;;12.67;11.33;;;;;;;;5055668;28;45287;-72
2022/10/27 03:09:08;;;;;;;;;10.00;10.00;;;;;;;;5055516;28;45270;-72
2022/10/27 03:11:33;;;;;;;;;8.33;8.33;;;;;;;;5055958;28;45324;-72
2022/10/27 03:13:58;;;;;;;;;11.75;10.00;;;;;;;;5055448;28;45606;-73
2022/10/27 03:16:23;;;;;;;;;8.33;8.33;;;;;;;;5055380;28;45350;-72
2022/10/27 03:18:49;;;;;;;;;12.33;10.00;;;;;;;;5055625;28;45658;-72
2022/10/27 03:21:14;;;;;;;;;10.75;8.50;;;;;;;;5055469;28;45433;-71
2022/10/27 03:23:39;;;;;;;;;11.00;10.50;;;;;;;;5055305;28;45329;-71
2022/10/27 03:26:05;;;;;;;;;12.33;9.33;;;;;;;;5055715;28;45710;-71
2022/10/27 03:28:34;;;;;;;;;10.25;9.00;;;;;;;;5055281;28;45698;-72
2022/10/27 03:30:59;;;;;;;;;15.00;10.50;;;;;;;;5055102;28;45420;-72
2022/10/27 03:33:24;;;;;;;;;13.33;11.33;;;;;;;;5055315;28;45410;-71
2022/10/27 03:35:49;;;;;;;;;11.00;7.67;;;;;;;;5055266;28;45919;-71
2022/10/27 03:38:14;;;;;;;;;11.25;8.75;;;;;;;;5055631;28;45453;-71
2022/10/27 03:40:40;;;;;;;;;10.25;9.25;;;;;;;;5055202;28;45373;-71
2022/10/27 03:43:05;;;;;;;;;17.50;17.50;;;;;;;;5055002;28;46244;-71
2022/10/27 03:45:30;;;;;;;;;9.67;9.67;;;;;;;;5055446;28;45349;-71
2022/10/27 03:48:03;;;;;;;;;10.33;9.33;;;;;;;;5055175;28;45717;-71
2022/10/27 03:50:28;;;;;;;;;9.25;8.50;;;;;;;;5055088;28;45457;-71
2022/10/27 03:52:53;;;;;;;;;10.25;9.25;;;;;;;;5054603;28;46760;-71
2022/10/27 03:55:19;;;;;;;;;10.25;9.00;;;;;;;;5055171;28;45705;-71
2022/10/27 03:57:44;;;;;;;;;8.00;8.00;;;;;;;;5058955;28;45621;-72
2022/10/27 04:00:09;;;;;;;;;7.75;7.75;;;;;;;;5058734;28;45429;-71
2022/10/27 04:02:35;;;;;;;;;12.50;9.50;;;;;;;;5057993;28;46429;-71
2022/10/27 04:05:00;;;;;;;;;12.25;9.50;;;;;;;;5058377;28;45738;-71
2022/10/27 04:07:25;;;;;;;;;9.00;8.67;;;;;;;;5058649;28;45608;-72
2022/10/27 04:09:50;;;;;;;;;7.00;7.00;;;;;;;;5058885;28;45512;-72
2022/10/27 04:12:15;;;;;;;;;12.25;9.00;;;;;;;;5057579;28;46763;-71
2022/10/27 04:14:41;;;;;;;;;9.50;8.75;;;;;;;;5058420;28;45374;-71
2022/10/27 04:17:06;;;;;;;;;8.25;8.00;;;;;;;;5058546;28;45353;-72
2022/10/27 04:19:31;;;;;;;;;7.67;7.67;;;;;;;;5058682;28;45685;-71
2022/10/27 04:21:56;;;;;;;;;7.50;7.50;;;;;;;;5057957;28;45444;-71
2022/10/27 04:24:21;;;;;;;;;3.50;3.50;;;;;;;;5057988;28;45454;-71
2022/10/27 04:26:46;;;;;;;;;7.50;7.50;;;;;;;;5058429;28;45453;-72
2022/10/27 04:29:12;;;;;;;;;3.50;3.25;;;;;;;;5058478;28;45375;-71
2022/10/27 04:31:37;;;;;;;;;6.50;6.50;;;;;;;;5073591;28;46387;-71
2022/10/27 04:34:02;;;;;;;;;7.00;7.00;;;;;;;;5057747;28;45295;-72
2022/10/27 04:36:28;;;;;;;;;7.00;7.00;;;;;;;;5057946;28;45334;-71
2022/10/27 04:38:53;;;;;;;;;8.00;5.00;;;;;;;;5058444;28;45351;-72
2022/10/27 04:41:18;;;;;;;;;8.25;6.00;;;;;;;;5057668;28;45361;-71
2022/10/27 04:43:47;;;;;;;;;7.00;5.00;;;;;;;;5057526;28;45297;-71
2022/10/27 04:46:12;;;;;;;;;9.00;7.00;;;;;;;;5057869;28;45501;-71
2022/10/27 04:48:37;;;;;;;;;7.00;7.00;;;;;;;;5057972;28;45418;-72
2022/10/27 04:51:02;;;;;;;;;9.75;6.50;;;;;;;;5057558;28;47115;-71
2022/10/27 04:53:28;;;;;;;;;6.75;6.75;;;;;;;;5057735;28;45469;-71
2022/10/27 04:55:53;;;;;;;;;11.00;8.75;;;;;;;;5057257;28;45342;-71
2022/10/27 04:58:19;;;;;;;;;10.75;8.75;;;;;;;;5058006;28;45474;-71
2022/10/27 05:00:44;;;;;;;;;7.50;6.50;;;;;;;;5057481;28;46623;-71
2022/10/27 05:03:09;;;;;;;;;12.33;10.00;;;;;;;;5057449;28;45476;-72
2022/10/27 05:05:35;;;;;;;;;6.33;6.33;;;;;;;;5057200;28;45437;-71
2022/10/27 05:08:01;;;;;;;;;9.50;9.50;;;;;;;;5056315;28;45397;-71
2022/10/27 05:10:27;;;;;;;;;9.75;9.75;;;;;;;;5057457;28;46617;-71
2022/10/27 05:12:52;;;;;;;;;9.75;9.75;;;;;;;;5057344;28;45784;-70
2022/10/27 05:15:18;;;;;;;;;11.75;9.75;;;;;;;;5056519;28;45362;-71
2022/10/27 05:17:43;;;;;;;;;6.75;6.75;;;;;;;;5057648;28;45405;-71
2022/10/27 05:20:08;;;;;;;;;8.75;7.50;;;;;;;;5057137;28;45611;-72
2022/10/27 05:22:33;;;;;;;;;6.25;4.50;;;;;;;;5057180;28;45365;-71
2022/10/27 05:24:59;;;;;;;;;8.50;6.50;;;;;;;;5057257;28;45508;-71
2022/10/27 05:27:24;;;;;;;;;8.25;8.25;;;;;;;;5057255;28;45292;-71
2022/10/27 05:29:49;;;;;;;;;9.50;8.00;;;;;;;;5056796;28;45340;-71
2022/10/27 05:32:14;;;;;;;;;6.25;4.75;;;;;;;;5056876;28;45314;-70
2022/10/27 05:34:40;;;;;;;;;8.75;5.00;;;;;;;;5057400;28;45363;-71
2022/10/27 05:37:06;;;;;;;;;5.50;5.25;;;;;;;;5056790;28;45406;-71
2022/10/27 05:39:31;;;;;;;;;8.25;4.50;;;;;;;;5057075;28;46615;-71
2022/10/27 05:41:56;;;;;;;;;6.50;5.00;;;;;;;;5056947;28;45292;-71
2022/10/27 05:44:21;;;;;;;;;8.00;6.50;;;;;;;;5057128;28;45376;-71
2022/10/27 05:46:46;;;;;;;;;5.25;4.00;;;;;;;;5056986;28;45290;-71
2022/10/27 05:49:12;;;;;;;;;5.50;3.75;;;;;;;;5055676;28;46600;-70
2022/10/27 05:51:37;;;;;;;;;5.00;5.00;;;;;;;;5057058;28;45453;-71
2022/10/27 05:54:02;;;;;;;;;4.50;4.50;;;;;;;;5057012;28;45370;-71
2022/10/27 05:56:27;;;;;;;;;5.25;5.25;;;;;;;;5057018;28;45763;-71
2022/10/27 05:58:52;;;;;;;;;6.00;6.00;;;;;;;;5056247;28;45646;-70
2022/10/27 06:01:18;;;;;;;;;10.25;5.25;;;;;;;;5056489;28;45416;-70
2022/10/27 06:03:43;;;;;;;;;5.25;5.25;;;;;;;;5056760;28;45716;-71
2022/10/27 06:06:08;;;;;;;;;9.00;7.50;;;;;;;;5056670;28;45510;-71
2022/10/27 06:08:34;;;;;;;;;16.00;14.33;;;;;;;;5056302;28;46190;-71
2022/10/27 06:11:00;;;;;;;;;7.00;7.00;;;;;;;;5056582;28;45494;-71
2022/10/27 06:13:25;;;;;;;;;7.50;7.50;;;;;;;;5056622;28;45366;-71
2022/10/27 06:15:50;;;;;;;;;8.75;7.25;;;;;;;;5056505;28;45378;-71
2022/10/27 06:18:16;;;;;;;;;12.33;10.00;;;;;;;;5055422;28;46410;-70
2022/10/27 06:20:41;;;;;;;;;11.00;9.25;;;;;;;;5056411;28;45379;-71
2022/10/27 06:23:07;;;;;;;;;14.67;10.33;;;;;;;;5056009;28;45381;-71
2022/10/27 06:25:32;;;;;;;;;10.00;10.00;;;;;;;;5056488;28;45450;-70
2022/10/27 06:27:57;;;;;;;;;12.33;11.00;;;;;;;;5056137;28;45417;-71
2022/10/27 06:30:22;;;;;;;;;12.67;11.33;;;;;;;;5055618;28;45737;-71
2022/10/27 06:32:48;;;;;;;;;11.00;8.75;;;;;;;;5056420;28;45330;-71
2022/10/27 06:35:13;;;;;;;;;13.67;10.67;;;;;;;;5056447;28;45388;-71
2022/10/27 06:37:39;;;;;;;;;12.67;11.33;;;;;;;;5055755;28;46182;-71
2022/10/27 06:40:05;;;;;;;;;11.25;7.75;;;;;;;;5055872;28;45783;-71
2022/10/27 06:42:30;;;;;;;;;8.50;8.50;;;;;;;;5056067;28;45889;-71
2022/10/27 06:44:55;;;;;;;;;10.50;8.75;;;;;;;;5056447;28;45395;-71
2022/10/27 06:47:20;;;;;;;;;11.25;8.00;;;;;;;;5055780;28;46358;-71
2022/10/27 06:49:46;;;;;;;;;6.75;5.75;;;;;;;;5055575;28;45925;-71
2022/10/27 06:52:11;;;;;;;;;9.75;7.75;;;;;;;;5055860;28;45553;-70
2022/10/27 06:54:36;;;;;;;;;7.25;5.75;;;;;;;;5056248;28;45481;-70
2022/10/27 06:57:01;;;;;;;;;4.50;4.50;;;;;;;;5055508;28;46186;-70
2022/10/27 06:59:26;;;;;;;;;5.00;5.00;;;;;;;;5055650;28;45347;-70
2022/10/27 07:01:52;;;;;;;;;4.00;3.00;;;;;;;;5055472;28;45315;-70
2022/10/27 07:04:17;;;;;;;;;7.50;5.25;;;;;;;;5056029;28;45609;-71
2022/10/27 07:06:42;;;;;;;;;7.25;6.75;;;;;;;;5055407;28;45546;-70
2022/10/27 07:09:07;;;;;;;;;3.50;3.50;;;;;;;;5055785;28;45598;-70
2022/10/27 07:11:33;;;;;;;;;4.50;3.50;;;;;;;;5055028;28;45462;-70
2022/10/27 07:13:58;;;;;;;;;5.00;3.75;;;;;;;;5056171;28;45382;-71
2022/10/27 07:16:23;;;;;;;;;6.25;5.00;;;;;;;;5054973;28;45548;-70
2022/10/27 07:18:48;;;;;;;;;4.50;4.50;;;;;;;;5055269;28;45390;-70
2022/10/27 07:21:14;;;;;;;;;8.67;8.67;;;;;;;;5055156;28;45367;-70
2022/10/27 07:23:39;;;;;;;;;8.00;4.75;;;;;;;;5055429;28;45389;-70
2022/10/27 07:26:04;;;;;;;;;6.50;5.75;;;;;;;;5055620;28;46447;-70
2022/10/27 07:28:30;;;;;;;;;7.00;4.50;;;;;;;;5055493;28;45817;-70
2022/10/27 07:30:55;;;;;;;;;6.75;5.00;;;;;;;;5056567;28;45409;-70
2022/10/27 07:33:20;;;;;;;;;5.25;4.25;;;;;;;;5058342;28;45351;-72
2022/10/27 07:35:49;;;;;;;;;5.00;3.75;;;;;;;;5058301;28;46377;-70
2022/10/27 07:38:14;;;;;;;;;5.00;4.00;;;;;;;;5058714;28;45299;-70
2022/10/27 07:40:40;;;;;;;;;3.25;3.25;;;;;;;;5058962;28;45444;-68
2022/10/27 07:43:05;;;;;;;;;2.75;2.75;;;;;;;;5058748;28;45326;-72
2022/10/27 07:45:30;;;;;;;;;2.00;1.00;;;;;;;;5057840;28;46303;-73
2022/10/27 07:47:56;;;;;;;;;4.00;3.50;;;;;;;;5058278;28;45473;-72
2022/10/27 07:50:23;;;;;;;;;3.50;3.50;;;;;;;;5058833;28;45435;-71
2022/10/27 07:52:49;;;;;;;;;3.00;3.00;;;;;;;;5058227;28;45611;-72
2022/10/27 07:55:15;;;;;;;;;3.00;3.00;;;;;;;;5058410;28;47205;-71
2022/10/27 07:57:42;;;;;;;;;2.75;2.00;;;;;;;;5057484;28;45491;-71
2022/10/27 08:00:08;;;;;;;;;3.25;3.00;;;;;;;;5058236;28;45411;-72
2022/10/27 08:02:33;;;;;;;;;6.50;5.50;;;;;;;;5057138;28;45453;-71
2022/10/27 08:04:59;;;;;;;;;5.00;4.00;;;;;;;;5057102;28;45819;-72
2022/10/27 08:07:24;;;;;;;;;4.75;4.25;;;;;;;;5058037;28;45396;-72
2022/10/27 08:09:49;;;;;;;;;3.75;3.75;;;;;;;;5056423;28;45493;-71
2022/10/27 08:12:14;;;;;;;;;5.00;3.00;;;;;;;;5058854;28;45448;-72
2022/10/27 08:14:40;;;;;;;;;5.25;4.25;;;;;;;;5055172;28;46206;-72
2022/10/27 08:17:05;;;;;;;;;4.00;3.00;;;;;;;;5057981;28;45435;-70
2022/10/27 08:19:30;;;;;;;;;4.00;3.00;;;;;;;;5055537;28;45515;-73
2022/10/27 08:21:55;;;;;;;;;3.50;3.00;;;;;;;;5058055;28;45428;-72
2022/10/27 08:24:20;;;;;;;;;2.50;2.50;;;;;;;;5056576;28;45641;-71
2022/10/27 08:26:46;;;;;;;;;8.00;4.00;;;;;;;;5057069;28;45403;-72
2022/10/27 08:29:11;;;;;;;;;3.00;3.00;;;;;;;;5058115;28;45431;-72
2022/10/27 08:31:36;;;;;;;;;7.00;4.25;;;;;;;;5056359;28;45807;-72
2022/10/27 08:34:01;;;;;;;;;3.75;3.75;;;;;;;;5057869;28;46600;-72
2022/10/27 08:36:26;;;;;;;;;5.00;4.00;;;;;;;;5055578;28;45856;-71
2022/10/27 08:38:52;;;;;;;;;4.75;4.25;;;;;;;;5058009;28;45331;-73
2022/10/27 08:41:20;;;;;;;;;4.50;4.00;;;;;;;;5055304;28;45447;-67
2022/10/27 08:43:51;;;;;;;;;4.25;3.50;;;;;;;;5057624;28;46880;-72
2022/10/27 08:46:19;;;;;;;;;5.00;5.00;;;;;;;;5055882;28;45734;-70
2022/10/27 08:48:45;;;;;;;;;4.75;4.75;;;;;;;;5055772;28;45440;-70
2022/10/27 08:51:14;;;;;;;;;3.00;3.00;;;;;;;;5058122;28;45350;-71
2022/10/27 08:53:40;;;;;;;;;6.00;3.75;;;;;;;;5059070;28;45627;-74
2022/10/27 08:56:08;;;;;;;;;4.00;4.00;;;;;;;;5059048;28;45249;-74
2022/10/27 08:58:36;;;;;;;;;6.75;3.75;;;;;;;;5058771;28;45488;-72
2022/10/27 09:01:08;;;;;;;;;5.25;2.50;;;;;;;;5059584;28;45305;-78
2022/10/27 09:03:41;;;;;;;;;6.25;4.75;;;;;;;;5058717;28;45512;-79
2022/10/27 09:06:38;;;;;;;;;6.25;4.25;;;;;;;;5058386;28;45224;-78
2022/10/27 09:09:09;;;;;;;;;5.50;4.00;;;;;;;;4996181;28;45488;-80
2022/10/27 09:11:49;;;;;;;;;5.75;3.00;;;;;;;;4996719;28;45306;-84
2022/10/27 09:14:28;;;;;;;;;4.00;4.00;;;;;;;;4977441;28;46432;-79
2022/10/27 09:16:56;;;;;;;;;4.00;3.00;;;;;;;;4976413;28;45928;-79
2022/10/27 09:19:25;;;;;;;;;2.25;2.25;;;;;;;;4991369;28;45446;-83
2022/10/27 09:21:50;;;;;;;;;4.25;2.50;;;;;;;;4997162;28;45422;-75
2022/10/27 09:24:18;;;;;;;;;10.50;8.00;;;;;;;;4996149;28;45555;-73
2022/10/27 09:26:44;;;;;;;;;3.00;3.00;;;;;;;;4996599;28;45375;-75
2022/10/27 09:29:20;;;;;;;;;4.00;4.00;;;;;;;;4996530;28;45338;-73
2022/10/27 09:31:54;;;;;;;;;6.00;3.75;;;;;;;;4995866;28;45388;-72
2022/10/27 09:34:22;;;;;;;;;4.00;4.00;;;;;;;;4996103;28;46360;-74
2022/10/27 09:36:47;;;;;;;;;2.25;2.25;;;;;;;;4996647;28;45504;-72
2022/10/27 09:39:13;;;;;;;;;5.00;4.00;;;;;;;;4996067;28;45600;-73
2022/10/27 09:41:38;;;;;;;;;8.00;5.75;;;;;;;;4996460;28;45587;-75
2022/10/27 09:44:09;;;;;;;;;4.25;4.25;;;;;;;;5006540;28;47292;-76
2022/10/27 09:46:34;;;;;;;;;5.00;3.75;;;;;;;;5038257;28;45304;-75
2022/10/27 09:49:04;;;;;;;;;5.50;3.00;;;;;;;;5038746;28;45365;-74
2022/10/27 09:51:42;;;;;;;;;7.00;4.00;;;;;;;;5038345;28;45401;-76
2022/10/27 09:54:26;;;;;;;;;5.25;3.25;;;;;;;;5036483;28;45984;-76
2022/10/27 09:56:51;;;;;;;;;4.00;4.00;;;;;;;;5038017;28;45315;-74
2022/10/27 09:59:20;;;;;;;;;11.50;5.00;;;;;;;;5038308;28;45361;-74
2022/10/27 10:01:55;;;;;;;;;0.00;0.00;;;;;;;;5038384;28;45388;-71
2022/10/27 10:04:27;;;;;;;;;6.25;4.00;;;;;;;;5037704;28;46317;-73
2022/10/27 10:06:54;;;;;;;;;5.00;5.00;;;;;;;;5036366;28;45413;-73
2022/10/27 10:09:21;;;;;;;;;6.50;4.25;;;;;;;;5037983;28;45435;-71
2022/10/27 10:11:46;;;;;;;;;9.50;3.25;;;;;;;;5038325;28;45237;-71
2022/10/27 10:14:22;;;;;;;;;8.00;4.75;;;;;;;;5037864;28;45308;-72
2022/10/27 10:16:48;;;;;;;;;4.00;3.00;;;;;;;;5038036;28;45385;-76
2022/10/27 10:19:21;;;;;;;;;4.25;4.25;;;;;;;;5037580;28;45481;-76
2022/10/27 10:21:57;;;;;;;;;3.50;3.25;;;;;;;;5037744;28;45707;-75
2022/10/27 10:24:26;;;;;;;;;5.00;3.25;;;;;;;;5037700;28;45525;-76
2022/10/27 10:26:53;;;;;;;;;5.75;4.75;;;;;;;;5037398;28;45354;-75
2022/10/27 10:29:26;;;;;;;;;4.25;3.25;;;;;;;;5046249;27;46728;-76
2022/10/27 10:31:52;;;;;;;;;13.00;10.33;;;;;;;;5057943;28;45319;-76
2022/10/27 10:34:28;;;;;;;;;5.50;5.50;;;;;;;;5056291;28;46499;-75
2022/10/27 10:36:53;;;;;;;;;5.67;5.67;;;;;;;;5057564;28;45227;-75
2022/10/27 10:39:26;;;;;;;;;6.25;3.75;;;;;;;;5056579;28;45403;-76
2022/10/27 10:42:11;;;;;;;;;6.00;4.75;;;;;;;;5056795;28;45449;-76
2022/10/27 10:44:37;;;;;;;;;5.25;4.00;;;;;;;;5042006;28;45604;-74
2022/10/27 10:47:03;;;;;;;;;6.00;6.00;;;;;;;;5037289;28;45359;-75
2022/10/27 10:49:33;;;;;;;;;7.00;5.50;;;;;;;;5056024;28;45338;-75
2022/10/27 10:52:01;;;;;;;;;7.25;3.25;;;;;;;;5038160;28;45364;-77
2022/10/27 10:54:36;;;;;;;;;3.75;3.75;;;;;;;;5042594;28;46109;-76
2022/10/27 10:57:02;;;;;;;;;4.50;3.00;;;;;;;;5054782;28;46567;-75
2022/10/27 10:59:29;;;;;;;;;3.50;3.00;;;;;;;;5052628;28;45502;-77
2022/10/27 11:02:03;;;;;;;;;4.75;4.00;;;;;;;;5045497;28;45480;-77
2022/10/27 11:04:30;;;;;;;;;5.00;5.00;;;;;;;;5041895;28;45477;-70
2022/10/27 11:07:02;;;;;;;;;6.50;3.75;;;;;;;;5045742;28;45958;-74
2022/10/27 11:09:32;;;;;;;;;6.00;4.00;;;;;;;;5056419;28;45493;-72
2022/10/27 11:11:58;;;;;;;;;4.50;4.50;;;;;;;;5056967;28;45454;-70
2022/10/27 11:14:25;;;;;;;;;3.50;3.50;;;;;;;;5056022;28;46233;-69
2022/10/27 11:16:54;;;;;;;;;7.00;4.75;;;;;;;;5055609;28;45387;-68
2022/10/27 11:19:20;;;;;;;;;7.75;5.00;;;;;;;;5045012;28;45483;-69
2022/10/27 11:21:58;;;;;;;;;9.00;5.00;;;;;;;;5054415;28;45509;-68
2022/10/27 11:24:33;;;;;;;;;5.75;5.00;;;;;;;;5054472;28;45514;-68
2022/10/27 11:27:00;;;;;;;;;6.25;4.75;;;;;;;;5055339;28;45892;-68
2022/10/27 11:29:44;;;;;;;;;4.00;4.00;;;;;;;;5054025;28;45437;-69
2022/10/27 11:32:25;;;;;;;;;10.25;7.00;;;;;;;;5060004;28;45627;-68
2022/10/27 11:34:56;;;;;;;;;10.25;7.00;;;;;;;;5054236;28;47329;-71
2022/10/27 11:37:38;;;;;;;;;4.75;4.75;;;;;;;;5053711;28;45954;-72
2022/10/27 11:40:21;;;;;;;;;7.75;5.50;;;;;;;;5060863;28;45509;-71
2022/10/27 11:43:05;;;;;;;;;4.00;4.00;;;;;;;;5046985;28;45418;-71
2022/10/27 11:45:43;;;;;;;;;12.33;9.00;;;;;;;;5068874;27;45370;-67
2022/10/27 11:48:15;;;;;;;;;8.00;5.00;;;;;;;;5055559;28;45457;-69
2022/10/27 11:50:43;;;;;;;;;14.67;11.67;;;;;;;;5055390;28;45307;-71
2022/10/27 11:53:09;;;;;;;;;36.67;31.33;;;;;;;;5054509;28;45449;-71
2022/10/27 11:55:46;;;;;;;;;5.25;5.25;;;;;;;;5059635;28;46160;-70
2022/10/27 11:58:19;;;;;;;;;11.00;11.00;;;;;;;;5069557;28;45634;-75
2022/10/27 12:01:03;;;;;;;;;8.75;6.50;;;;;;;;5070167;28;45362;-72
2022/10/27 12:03:28;;;;;;;;;5.50;5.50;;;;;;;;5055922;28;45386;-71
2022/10/27 12:05:54;;;;;;;;;5.50;4.25;;;;;;;;5055688;28;46421;-71
2022/10/27 12:08:37;;;;;;;;;5.00;5.00;;;;;;;;5055797;28;45763;-71
2022/10/27 12:11:02;;;;;;;;;7.00;6.00;;;;;;;;5055775;28;45422;-72
2022/10/27 12:13:34;;;;;;;;;5.00;3.50;;;;;;;;5054937;28;45293;-72
2022/10/27 12:16:01;;;;;;;;;6.25;4.00;;;;;;;;5053340;28;46688;-73
2022/10/27 12:18:26;;;;;;;;;5.00;5.00;;;;;;;;5058471;28;45469;-72
2022/10/27 12:20:57;;;;;;;;;5.25;4.25;;;;;;;;5049821;28;45678;-71
2022/10/27 12:23:24;;;;;;;;;8.25;6.75;;;;;;;;5051584;28;45520;-71
2022/10/27 12:26:08;;;;;;;;;5.00;4.00;;;;;;;;5049546;28;45442;-68
2022/10/27 12:28:34;;;;;;;;;5.25;4.25;;;;;;;;5058029;28;45450;-68
2022/10/27 12:31:02;;;;;;;;;6.25;4.50;;;;;;;;5055001;28;45355;-69
2022/10/27 12:33:30;;;;;;;;;6.50;5.50;;;;;;;;5057762;28;46095;-68
2022/10/27 12:36:00;;;;;;;;;1.25;1.25;;;;;;;;5046586;28;47325;-68
2022/10/27 12:38:41;;;;;;;;;7.00;5.00;;;;;;;;5038697;28;45723;-68
2022/10/27 12:41:06;;;;;;;;;7.50;4.75;;;;;;;;5052442;28;45581;-68
2022/10/27 12:43:49;;;;;;;;;7.00;7.00;;;;;;;;5055326;28;45590;-69
2022/10/27 12:46:17;;;;;;;;;3.33;3.33;;;;;;;;5054832;28;46584;-69
2022/10/27 12:48:51;;;;;;;;;7.75;3.75;;;;;;;;5056481;28;45389;-69
2022/10/27 12:51:19;;;;;;;;;6.00;5.00;;;;;;;;5047582;28;45427;-68
2022/10/27 12:53:46;;;;;;;;;7.75;5.50;;;;;;;;5041898;28;45500;-70
2022/10/27 12:56:25;;;;;;;;;7.00;4.00;;;;;;;;5045371;28;46777;-68
2022/10/27 12:58:54;;;;;;;;;10.33;7.67;;;;;;;;5039359;28;46101;-67
2022/10/27 13:01:22;;;;;;;;;7.67;5.33;;;;;;;;5039033;28;45353;-68
2022/10/27 13:04:02;;;;;;;;;5.33;5.33;;;;;;;;5046885;28;45326;-72
2022/10/27 13:06:47;;;;;;;;;7.75;4.00;;;;;;;;5058177;28;47099;-77
2022/10/27 13:09:15;;;;;;;;;5.67;5.67;;;;;;;;5052448;28;45603;-73
2022/10/27 13:11:52;;;;;;;;;7.75;5.00;;;;;;;;5043213;28;45509;-72
2022/10/27 13:14:17;;;;;;;;;7.00;7.00;;;;;;;;5055393;28;45472;-71
2022/10/27 13:17:09;;;;;;;;;5.75;4.00;;;;;;;;5057857;28;45433;-72
2022/10/27 13:19:38;;;;;;;;;7.00;4.33;;;;;;;;5058148;28;45363;-68
2022/10/27 13:22:07;;;;;;;;;7.25;4.25;;;;;;;;5058168;28;45412;-67
2022/10/27 13:24:55;;;;;;;;;7.25;4.75;;;;;;;;5052435;28;45489;-68
2022/10/27 13:27:25;;;;;;;;;8.00;4.00;;;;;;;;5056069;28;47941;-70
2022/10/27 13:29:57;;;;;;;;;10.33;6.67;;;;;;;;5056855;28;45441;-69
2022/10/27 13:32:27;;;;;;;;;7.00;6.00;;;;;;;;5057989;28;45385;-68
2022/10/27 13:35:01;;;;;;;;;9.33;5.33;;;;;;;;5056828;28;45342;-67
2022/10/27 13:37:38;;;;;;;;;6.00;5.00;;;;;;;;5057763;28;46414;-69
2022/10/27 13:40:15;;;;;;;;;7.67;6.33;;;;;;;;5054999;28;45388;-71
2022/10/27 13:42:41;;;;;;;;;10.00;8.67;;;;;;;;5055283;28;45457;-70
2022/10/27 13:45:24;;;;;;;;;10.00;7.00;;;;;;;;5041357;28;45439;-70
2022/10/27 13:48:13;;;;;;;;;9.33;6.00;;;;;;;;5037536;28;46721;-70
2022/10/27 13:50:45;;;;;;;;;9.33;7.00;;;;;;;;5048777;28;45447;-69
2022/10/27 13:53:13;;;;;;;;;8.00;6.67;;;;;;;;5064180;28;45631;-66
2022/10/27 13:56:00;;;;;;;;;8.00;6.33;;;;;;;;5077775;27;45614;-76
2022/10/27 13:58:44;;;;;;;;;6.25;6.25;;;;;;;;5058952;28;46519;-73
2022/10/27 14:01:15;;;;;;;;;5.67;5.67;;;;;;;;5040623;28;45566;-71
2022/10/27 14:03:58;;;;;;;;;9.67;9.33;;;;;;;;5058204;28;45455;-70
2022/10/27 14:06:29;;;;;;;;;7.67;5.00;;;;;;;;5057906;28;45453;-74
2022/10/27 14:08:54;;;;;;;;;9.67;7.00;;;;;;;;5074313;28;46239;-75
2022/10/27 14:11:29;;;;;;;;;5.50;5.00;;;;;;;;5058397;28;45428;-75
2022/10/27 14:14:20;;;;;;;;;6.33;6.00;;;;;;;;5057105;28;45726;-78
2022/10/27 14:16:46;;;;;;;;;11.00;6.00;;;;;;;;5051455;28;45471;-74
2022/10/27 14:19:11;;;;;;;;;8.00;4.00;;;;;;;;5060708;27;46445;-76
2022/10/27 14:21:45;;;;;;;;;7.00;5.33;;;;;;;;5057274;28;45585;-78
2022/10/27 14:24:19;;;;;;;;;4.00;4.00;;;;;;;;5070774;28;45441;-75
2022/10/27 14:26:45;;;;;;;;;8.33;8.33;;;;;;;;5072322;28;45161;-73
2022/10/27 14:29:23;;;;;;;;;10.00;6.67;;;;;;;;5056895;28;47104;-74
2022/10/27 14:31:48;;;;;;;;;6.00;5.67;;;;;;;;5057137;28;45410;-77
2022/10/27 14:34:24;;;;;;;;;7.00;5.00;;;;;;;;5056630;28;45473;-75
2022/10/27 14:36:53;;;;;;;;;7.33;5.33;;;;;;;;5037183;28;45403;-75
2022/10/27 14:39:24;;;;;;;;;6.33;5.00;;;;;;;;5055809;28;46389;-75
2022/10/27 14:41:50;;;;;;;;;10.33;6.00;;;;;;;;5055354;28;45459;-73
2022/10/27 14:44:26;;;;;;;;;11.67;6.33;;;;;;;;5053372;28;45783;-68
2022/10/27 14:46:54;;;;;;;;;7.00;6.00;;;;;;;;5056455;28;45265;-69
2022/10/27 14:49:26;;;;;;;;;6.67;5.00;;;;;;;;5063492;28;46462;-68